sensor_id;sensor_type;location;lat;lon;timestamp;temperature;humidity
79024;DHT22;70306;44.764;37.688;2024-03-06T00:00:23;8.66;73.30
79024;DHT22;70306;44.764;37.688;2024-03-06T00:01:25;8.66;73.46
79024;DHT22;70306;44.764;37.688;2024-03-06T00:02:27;8.66;73.19
79024;DHT22;70306;44.764;37.688;2024-03-06T00:03:29;8.65;73.33
79024;DHT22;70306;44.764;37.688;2024-03-06T00:04:30;8.64;73.34
79024;DHT22;70306;44.764;37.688;2024-03-06T00:05:32;8.62;73.16
79024;DHT22;70306;44.764;37.688;2024-03-06T00:06:34;8.62;73.24
79024;DHT22;70306;44.764;37.688;2024-03-06T00:07:36;8.61;73.48
79024;DHT22;70306;44.764;37.688;2024-03-06T00:08:38;8.61;73.50
79024;DHT22;70306;44.764;37.688;2024-03-06T00:09:40;8.58;73.45
79024;DHT22;70306;44.764;37.688;2024-03-06T00:10:42;8.61;73.37
79024;DHT22;70306;44.764;37.688;2024-03-06T00:11:43;8.61;73.30
79024;DHT22;70306;44.764;37.688;2024-03-06T00:12:45;8.61;73.45
79024;DHT22;70306;44.764;37.688;2024-03-06T00:13:47;8.58;73.58
79024;DHT22;70306;44.764;37.688;2024-03-06T00:14:49;8.59;73.39
79024;DHT22;70306;44.764;37.688;2024-03-06T00:15:51;8.59;73.52
79024;DHT22;70306;44.764;37.688;2024-03-06T00:16:53;8.59;73.37
79024;DHT22;70306;44.764;37.688;2024-03-06T00:17:56;8.59;73.47
79024;DHT22;70306;44.764;37.688;2024-03-06T00:19:00;8.57;73.47
79024;DHT22;70306;44.764;37.688;2024-03-06T00:20:02;8.55;73.57
79024;DHT22;70306;44.764;37.688;2024-03-06T00:21:06;8.57;73.57
79024;DHT22;70306;44.764;37.688;2024-03-06T00:22:10;8.57;73.41
79024;DHT22;70306;44.764;37.688;2024-03-06T00:23:11;8.52;73.46
79024;DHT22;70306;44.764;37.688;2024-03-06T00:24:14;8.52;73.40
79024;DHT22;70306;44.764;37.688;2024-03-06T00:25:16;8.52;73.56
79024;DHT22;70306;44.764;37.688;2024-03-06T00:26:17;8.49;73.45
79024;DHT22;70306;44.764;37.688;2024-03-06T00:27:19;8.49;73.70
79024;DHT22;70306;44.764;37.688;2024-03-06T00:28:21;8.48;73.61
79024;DHT22;70306;44.764;37.688;2024-03-06T00:29:23;8.45;73.71
79024;DHT22;70306;44.764;37.688;2024-03-06T00:30:25;8.44;73.71
79024;DHT22;70306;44.764;37.688;2024-03-06T00:31:27;8.41;73.69
79024;DHT22;70306;44.764;37.688;2024-03-06T00:32:29;8.40;73.58
79024;DHT22;70306;44.764;37.688;2024-03-06T00:33:31;8.42;73.89
79024;DHT22;70306;44.764;37.688;2024-03-06T00:34:33;8.40;73.72
79024;DHT22;70306;44.764;37.688;2024-03-06T00:35:34;8.40;73.69
79024;DHT22;70306;44.764;37.688;2024-03-06T00:36:37;8.37;73.63
79024;DHT22;70306;44.764;37.688;2024-03-06T00:37:39;8.34;73.60
79024;DHT22;70306;44.764;37.688;2024-03-06T00:38:41;8.36;73.88
79024;DHT22;70306;44.764;37.688;2024-03-06T00:39:43;8.31;74.11
79024;DHT22;70306;44.764;37.688;2024-03-06T00:40:45;8.31;73.94
79024;DHT22;70306;44.764;37.688;2024-03-06T00:41:46;8.33;73.92
79024;DHT22;70306;44.764;37.688;2024-03-06T00:42:48;8.30;73.72
79024;DHT22;70306;44.764;37.688;2024-03-06T00:43:50;8.31;73.81
79024;DHT22;70306;44.764;37.688;2024-03-06T00:44:51;8.29;73.84
79024;DHT22;70306;44.764;37.688;2024-03-06T00:45:53;8.30;73.88
79024;DHT22;70306;44.764;37.688;2024-03-06T00:46:55;8.29;74.07
79024;DHT22;70306;44.764;37.688;2024-03-06T00:47:57;8.27;74.01
79024;DHT22;70306;44.764;37.688;2024-03-06T00:48:59;8.26;73.88
79024;DHT22;70306;44.764;37.688;2024-03-06T00:50:01;8.24;74.09
79024;DHT22;70306;44.764;37.688;2024-03-06T00:51:03;8.24;73.95
79024;DHT22;70306;44.764;37.688;2024-03-06T00:52:05;8.22;73.93
79024;DHT22;70306;44.764;37.688;2024-03-06T00:53:06;8.20;74.03
79024;DHT22;70306;44.764;37.688;2024-03-06T00:54:08;8.20;74.15
79024;DHT22;70306;44.764;37.688;2024-03-06T00:55:10;8.22;74.22
79024;DHT22;70306;44.764;37.688;2024-03-06T00:56:12;8.22;74.21
79024;DHT22;70306;44.764;37.688;2024-03-06T00:57:14;8.22;74.30
79024;DHT22;70306;44.764;37.688;2024-03-06T00:58:16;8.22;74.24
79024;DHT22;70306;44.764;37.688;2024-03-06T00:59:17;8.20;74.28
79024;DHT22;70306;44.764;37.688;2024-03-06T01:00:19;8.24;74.36
79024;DHT22;70306;44.764;37.688;2024-03-06T01:01:21;8.24;74.21
79024;DHT22;70306;44.764;37.688;2024-03-06T01:02:23;8.24;74.20
79024;DHT22;70306;44.764;37.688;2024-03-06T01:03:25;8.24;74.48
79024;DHT22;70306;44.764;37.688;2024-03-06T01:04:28;8.22;74.17
79024;DHT22;70306;44.764;37.688;2024-03-06T01:05:30;8.23;74.25
79024;DHT22;70306;44.764;37.688;2024-03-06T01:06:31;8.19;74.03
79024;DHT22;70306;44.764;37.688;2024-03-06T01:07:33;8.19;74.05
79024;DHT22;70306;44.764;37.688;2024-03-06T01:08:36;8.19;74.36
79024;DHT22;70306;44.764;37.688;2024-03-06T01:09:37;8.20;74.25
79024;DHT22;70306;44.764;37.688;2024-03-06T01:10:40;8.22;74.42
79024;DHT22;70306;44.764;37.688;2024-03-06T01:11:41;8.20;74.18
79024;DHT22;70306;44.764;37.688;2024-03-06T01:12:43;8.19;74.04
79024;DHT22;70306;44.764;37.688;2024-03-06T01:13:48;8.20;74.31
79024;DHT22;70306;44.764;37.688;2024-03-06T01:14:50;8.19;74.03
79024;DHT22;70306;44.764;37.688;2024-03-06T01:15:52;8.19;74.21
79024;DHT22;70306;44.764;37.688;2024-03-06T01:16:54;8.17;74.31
79024;DHT22;70306;44.764;37.688;2024-03-06T01:17:55;8.13;74.20
79024;DHT22;70306;44.764;37.688;2024-03-06T01:18:59;8.13;74.32
79024;DHT22;70306;44.764;37.688;2024-03-06T01:20:01;8.13;74.40
79024;DHT22;70306;44.764;37.688;2024-03-06T01:21:04;8.13;74.42
79024;DHT22;70306;44.764;37.688;2024-03-06T01:22:06;8.14;74.44
79024;DHT22;70306;44.764;37.688;2024-03-06T01:23:08;8.13;74.49
79024;DHT22;70306;44.764;37.688;2024-03-06T01:24:10;8.16;74.45
79024;DHT22;70306;44.764;37.688;2024-03-06T01:25:11;8.13;74.30
79024;DHT22;70306;44.764;37.688;2024-03-06T01:26:13;8.13;74.36
79024;DHT22;70306;44.764;37.688;2024-03-06T01:27:16;8.09;74.36
79024;DHT22;70306;44.764;37.688;2024-03-06T01:28:18;8.09;74.25
79024;DHT22;70306;44.764;37.688;2024-03-06T01:29:20;8.07;74.31
79024;DHT22;70306;44.764;37.688;2024-03-06T01:30:21;8.06;74.42
79024;DHT22;70306;44.764;37.688;2024-03-06T01:31:23;8.07;74.51
79024;DHT22;70306;44.764;37.688;2024-03-06T01:32:25;8.05;74.53
79024;DHT22;70306;44.764;37.688;2024-03-06T01:33:27;8.03;74.58
79024;DHT22;70306;44.764;37.688;2024-03-06T01:34:29;8.05;74.70
79024;DHT22;70306;44.764;37.688;2024-03-06T01:35:31;8.02;74.62
79024;DHT22;70306;44.764;37.688;2024-03-06T01:36:32;8.02;74.70
79024;DHT22;70306;44.764;37.688;2024-03-06T01:37:34;8.03;74.61
79024;DHT22;70306;44.764;37.688;2024-03-06T01:38:37;8.02;74.78
79024;DHT22;70306;44.764;37.688;2024-03-06T01:39:39;8.03;74.70
79024;DHT22;70306;44.764;37.688;2024-03-06T01:40:44;8.02;74.55
79024;DHT22;70306;44.764;37.688;2024-03-06T01:41:48;8.03;74.85
79024;DHT22;70306;44.764;37.688;2024-03-06T01:42:50;8.03;74.69
79024;DHT22;70306;44.764;37.688;2024-03-06T01:43:52;7.99;74.68
79024;DHT22;70306;44.764;37.688;2024-03-06T01:44:54;8.00;74.66
79024;DHT22;70306;44.764;37.688;2024-03-06T01:45:56;8.03;74.58
79024;DHT22;70306;44.764;37.688;2024-03-06T01:46:58;8.02;74.73
79024;DHT22;70306;44.764;37.688;2024-03-06T01:48:00;8.02;74.58
79024;DHT22;70306;44.764;37.688;2024-03-06T01:49:02;7.99;74.66
79024;DHT22;70306;44.764;37.688;2024-03-06T01:50:05;7.97;74.54
79024;DHT22;70306;44.764;37.688;2024-03-06T01:51:10;7.96;74.69
79024;DHT22;70306;44.764;37.688;2024-03-06T01:52:14;7.96;74.66
79024;DHT22;70306;44.764;37.688;2024-03-06T01:53:16;7.97;74.86
79024;DHT22;70306;44.764;37.688;2024-03-06T01:54:19;7.99;74.85
79024;DHT22;70306;44.764;37.688;2024-03-06T01:55:22;7.95;74.78
79024;DHT22;70306;44.764;37.688;2024-03-06T01:56:24;7.96;74.60
79024;DHT22;70306;44.764;37.688;2024-03-06T01:57:26;7.93;74.79
79024;DHT22;70306;44.764;37.688;2024-03-06T01:58:28;7.95;74.70
79024;DHT22;70306;44.764;37.688;2024-03-06T01:59:30;7.95;74.72
79024;DHT22;70306;44.764;37.688;2024-03-06T02:00:32;7.95;74.57
79024;DHT22;70306;44.764;37.688;2024-03-06T02:01:35;7.93;74.37
79024;DHT22;70306;44.764;37.688;2024-03-06T02:02:37;7.90;74.51
79024;DHT22;70306;44.764;37.688;2024-03-06T02:03:39;7.88;74.74
79024;DHT22;70306;44.764;37.688;2024-03-06T02:04:41;7.88;74.59
79024;DHT22;70306;44.764;37.688;2024-03-06T02:05:43;7.89;74.69
79024;DHT22;70306;44.764;37.688;2024-03-06T02:06:44;7.86;74.77
79024;DHT22;70306;44.764;37.688;2024-03-06T02:07:47;7.88;74.85
79024;DHT22;70306;44.764;37.688;2024-03-06T02:08:50;7.88;74.90
79024;DHT22;70306;44.764;37.688;2024-03-06T02:09:52;7.88;74.85
79024;DHT22;70306;44.764;37.688;2024-03-06T02:10:54;7.86;74.92
79024;DHT22;70306;44.764;37.688;2024-03-06T02:11:56;7.83;74.90
79024;DHT22;70306;44.764;37.688;2024-03-06T02:12:58;7.85;74.90
79024;DHT22;70306;44.764;37.688;2024-03-06T02:14:00;7.82;74.92
79024;DHT22;70306;44.764;37.688;2024-03-06T02:15:02;7.81;75.13
79024;DHT22;70306;44.764;37.688;2024-03-06T02:16:04;7.85;75.23
79024;DHT22;70306;44.764;37.688;2024-03-06T02:17:07;7.83;74.98
79024;DHT22;70306;44.764;37.688;2024-03-06T02:18:08;7.81;74.92
79024;DHT22;70306;44.764;37.688;2024-03-06T02:19:10;7.81;75.01
79024;DHT22;70306;44.764;37.688;2024-03-06T02:20:12;7.81;75.01
79024;DHT22;70306;44.764;37.688;2024-03-06T02:21:15;7.77;74.96
79024;DHT22;70306;44.764;37.688;2024-03-06T02:22:17;7.74;75.03
79024;DHT22;70306;44.764;37.688;2024-03-06T02:23:19;7.72;75.14
79024;DHT22;70306;44.764;37.688;2024-03-06T02:24:22;7.78;75.21
79024;DHT22;70306;44.764;37.688;2024-03-06T02:25:24;7.77;75.04
79024;DHT22;70306;44.764;37.688;2024-03-06T02:26:25;7.78;75.15
79024;DHT22;70306;44.764;37.688;2024-03-06T02:27:27;7.77;75.09
79024;DHT22;70306;44.764;37.688;2024-03-06T02:28:29;7.75;75.14
79024;DHT22;70306;44.764;37.688;2024-03-06T02:29:34;7.72;75.31
79024;DHT22;70306;44.764;37.688;2024-03-06T02:30:36;7.74;75.21
79024;DHT22;70306;44.764;37.688;2024-03-06T02:31:38;7.72;75.33
79024;DHT22;70306;44.764;37.688;2024-03-06T02:32:41;7.71;75.44
79024;DHT22;70306;44.764;37.688;2024-03-06T02:33:46;7.72;75.40
79024;DHT22;70306;44.764;37.688;2024-03-06T02:34:51;7.72;75.35
79024;DHT22;70306;44.764;37.688;2024-03-06T02:35:53;7.72;75.52
79024;DHT22;70306;44.764;37.688;2024-03-06T02:36:55;7.72;75.58
79024;DHT22;70306;44.764;37.688;2024-03-06T02:37:59;7.74;75.47
79024;DHT22;70306;44.764;37.688;2024-03-06T02:39:01;7.72;75.28
79024;DHT22;70306;44.764;37.688;2024-03-06T02:40:03;7.71;75.41
79024;DHT22;70306;44.764;37.688;2024-03-06T02:41:08;7.72;75.49
79024;DHT22;70306;44.764;37.688;2024-03-06T02:42:10;7.72;75.41
79024;DHT22;70306;44.764;37.688;2024-03-06T02:43:12;7.68;75.32
79024;DHT22;70306;44.764;37.688;2024-03-06T02:44:14;7.72;75.40
79024;DHT22;70306;44.764;37.688;2024-03-06T02:45:16;7.71;75.24
79024;DHT22;70306;44.764;37.688;2024-03-06T02:46:18;7.71;75.27
79024;DHT22;70306;44.764;37.688;2024-03-06T02:47:20;7.71;75.27
79024;DHT22;70306;44.764;37.688;2024-03-06T02:48:22;7.67;75.21
79024;DHT22;70306;44.764;37.688;2024-03-06T02:49:24;7.68;75.25
79024;DHT22;70306;44.764;37.688;2024-03-06T02:50:26;7.67;75.49
79024;DHT22;70306;44.764;37.688;2024-03-06T02:51:27;7.68;75.53
79024;DHT22;70306;44.764;37.688;2024-03-06T02:52:29;7.67;75.51
79024;DHT22;70306;44.764;37.688;2024-03-06T02:53:31;7.67;75.42
79024;DHT22;70306;44.764;37.688;2024-03-06T02:54:33;7.67;75.53
79024;DHT22;70306;44.764;37.688;2024-03-06T02:55:36;7.64;75.40
79024;DHT22;70306;44.764;37.688;2024-03-06T02:56:37;7.62;75.57
79024;DHT22;70306;44.764;37.688;2024-03-06T02:57:39;7.62;75.51
79024;DHT22;70306;44.764;37.688;2024-03-06T02:58:41;7.61;75.50
79024;DHT22;70306;44.764;37.688;2024-03-06T02:59:43;7.62;75.47
79024;DHT22;70306;44.764;37.688;2024-03-06T03:00:45;7.62;75.54
79024;DHT22;70306;44.764;37.688;2024-03-06T03:01:48;7.64;75.56
79024;DHT22;70306;44.764;37.688;2024-03-06T03:02:49;7.60;75.43
79024;DHT22;70306;44.764;37.688;2024-03-06T03:03:51;7.60;75.40
79024;DHT22;70306;44.764;37.688;2024-03-06T03:04:53;7.60;75.59
79024;DHT22;70306;44.764;37.688;2024-03-06T03:05:55;7.60;75.45
79024;DHT22;70306;44.764;37.688;2024-03-06T03:06:57;7.61;75.40
79024;DHT22;70306;44.764;37.688;2024-03-06T03:07:59;7.60;75.66
79024;DHT22;70306;44.764;37.688;2024-03-06T03:09:01;7.60;75.52
79024;DHT22;70306;44.764;37.688;2024-03-06T03:10:05;7.62;75.60
79024;DHT22;70306;44.764;37.688;2024-03-06T03:11:07;7.62;75.52
79024;DHT22;70306;44.764;37.688;2024-03-06T03:12:09;7.62;75.44
79024;DHT22;70306;44.764;37.688;2024-03-06T03:13:12;7.61;75.34
79024;DHT22;70306;44.764;37.688;2024-03-06T03:14:14;7.62;75.32
79024;DHT22;70306;44.764;37.688;2024-03-06T03:15:16;7.64;75.36
79024;DHT22;70306;44.764;37.688;2024-03-06T03:16:18;7.62;75.42
79024;DHT22;70306;44.764;37.688;2024-03-06T03:17:21;7.62;75.43
79024;DHT22;70306;44.764;37.688;2024-03-06T03:18:23;7.64;75.53
79024;DHT22;70306;44.764;37.688;2024-03-06T03:19:25;7.62;75.44
79024;DHT22;70306;44.764;37.688;2024-03-06T03:20:27;7.64;75.49
79024;DHT22;70306;44.764;37.688;2024-03-06T03:21:29;7.62;75.41
79024;DHT22;70306;44.764;37.688;2024-03-06T03:22:31;7.62;75.45
79024;DHT22;70306;44.764;37.688;2024-03-06T03:23:32;7.64;75.41
79024;DHT22;70306;44.764;37.688;2024-03-06T03:24:34;7.65;75.25
79024;DHT22;70306;44.764;37.688;2024-03-06T03:25:36;7.65;75.38
79024;DHT22;70306;44.764;37.688;2024-03-06T03:26:38;7.65;75.19
79024;DHT22;70306;44.764;37.688;2024-03-06T03:27:40;7.65;75.23
79024;DHT22;70306;44.764;37.688;2024-03-06T03:28:42;7.62;75.31
79024;DHT22;70306;44.764;37.688;2024-03-06T03:29:44;7.61;75.29
79024;DHT22;70306;44.764;37.688;2024-03-06T03:30:46;7.61;75.46
79024;DHT22;70306;44.764;37.688;2024-03-06T03:31:48;7.65;75.41
79024;DHT22;70306;44.764;37.688;2024-03-06T03:32:50;7.64;75.37
79024;DHT22;70306;44.764;37.688;2024-03-06T03:33:52;7.64;75.44
79024;DHT22;70306;44.764;37.688;2024-03-06T03:34:53;7.65;75.16
79024;DHT22;70306;44.764;37.688;2024-03-06T03:35:55;7.62;75.30
79024;DHT22;70306;44.764;37.688;2024-03-06T03:36:57;7.64;75.20
79024;DHT22;70306;44.764;37.688;2024-03-06T03:37:59;7.62;75.33
79024;DHT22;70306;44.764;37.688;2024-03-06T03:39:00;7.64;75.51
79024;DHT22;70306;44.764;37.688;2024-03-06T03:40:02;7.68;75.44
79024;DHT22;70306;44.764;37.688;2024-03-06T03:41:11;7.71;75.50
79024;DHT22;70306;44.764;37.688;2024-03-06T03:42:17;7.74;75.47
79024;DHT22;70306;44.764;37.688;2024-03-06T03:43:20;7.72;75.12
79024;DHT22;70306;44.764;37.688;2024-03-06T03:44:22;7.72;75.09
79024;DHT22;70306;44.764;37.688;2024-03-06T03:45:24;7.75;75.06
79024;DHT22;70306;44.764;37.688;2024-03-06T03:46:26;7.77;74.94
79024;DHT22;70306;44.764;37.688;2024-03-06T03:47:27;7.77;74.80
79024;DHT22;70306;44.764;37.688;2024-03-06T03:48:29;7.77;74.98
79024;DHT22;70306;44.764;37.688;2024-03-06T03:49:31;7.79;75.01
79024;DHT22;70306;44.764;37.688;2024-03-06T03:50:33;7.82;74.99
79024;DHT22;70306;44.764;37.688;2024-03-06T03:51:36;7.85;74.82
79024;DHT22;70306;44.764;37.688;2024-03-06T03:53:03;7.88;74.73
79024;DHT22;70306;44.764;37.688;2024-03-06T03:55:56;7.89;74.60
79024;DHT22;70306;44.764;37.688;2024-03-06T03:56:58;7.92;74.56
79024;DHT22;70306;44.764;37.688;2024-03-06T03:58:02;7.90;74.60
79024;DHT22;70306;44.764;37.688;2024-03-06T03:59:04;7.92;74.49
79024;DHT22;70306;44.764;37.688;2024-03-06T04:00:07;7.90;74.66
79024;DHT22;70306;44.764;37.688;2024-03-06T04:03:01;7.85;74.58
79024;DHT22;70306;44.764;37.688;2024-03-06T04:04:03;7.85;74.70
79024;DHT22;70306;44.764;37.688;2024-03-06T04:05:06;7.86;74.71
79024;DHT22;70306;44.764;37.688;2024-03-06T04:06:08;7.83;74.80
79024;DHT22;70306;44.764;37.688;2024-03-06T04:07:10;7.85;74.91
79024;DHT22;70306;44.764;37.688;2024-03-06T04:08:11;7.88;75.01
79024;DHT22;70306;44.764;37.688;2024-03-06T04:09:13;7.93;74.92
79024;DHT22;70306;44.764;37.688;2024-03-06T04:10:16;7.93;74.77
79024;DHT22;70306;44.764;37.688;2024-03-06T04:11:18;7.95;74.90
79024;DHT22;70306;44.764;37.688;2024-03-06T04:12:20;7.95;74.98
79024;DHT22;70306;44.764;37.688;2024-03-06T04:13:21;7.96;74.95
79024;DHT22;70306;44.764;37.688;2024-03-06T04:14:23;7.99;74.97
79024;DHT22;70306;44.764;37.688;2024-03-06T04:15:26;8.02;74.84
79024;DHT22;70306;44.764;37.688;2024-03-06T04:16:28;8.06;74.71
79024;DHT22;70306;44.764;37.688;2024-03-06T04:17:29;8.05;74.78
79024;DHT22;70306;44.764;37.688;2024-03-06T04:18:32;8.06;74.90
79024;DHT22;70306;44.764;37.688;2024-03-06T04:19:37;8.10;75.06
79024;DHT22;70306;44.764;37.688;2024-03-06T04:20:39;8.07;74.88
79024;DHT22;70306;44.764;37.688;2024-03-06T04:21:44;8.09;75.08
79024;DHT22;70306;44.764;37.688;2024-03-06T04:22:46;8.12;74.86
79024;DHT22;70306;44.764;37.688;2024-03-06T04:23:49;8.12;74.82
79024;DHT22;70306;44.764;37.688;2024-03-06T04:24:50;8.16;74.88
79024;DHT22;70306;44.764;37.688;2024-03-06T04:25:52;8.16;74.90
79024;DHT22;70306;44.764;37.688;2024-03-06T04:26:54;8.19;74.81
79024;DHT22;70306;44.764;37.688;2024-03-06T04:27:56;8.22;74.92
79024;DHT22;70306;44.764;37.688;2024-03-06T04:28:58;8.27;75.12
79024;DHT22;70306;44.764;37.688;2024-03-06T04:29:59;8.33;75.11
79024;DHT22;70306;44.764;37.688;2024-03-06T04:31:01;8.33;75.01
79024;DHT22;70306;44.764;37.688;2024-03-06T04:32:03;8.37;75.02
79024;DHT22;70306;44.764;37.688;2024-03-06T04:33:05;8.41;74.98
79024;DHT22;70306;44.764;37.688;2024-03-06T04:34:07;8.41;74.88
79024;DHT22;70306;44.764;37.688;2024-03-06T04:35:09;8.47;74.76
79024;DHT22;70306;44.764;37.688;2024-03-06T04:36:11;8.48;74.63
79024;DHT22;70306;44.764;37.688;2024-03-06T04:37:13;8.54;74.53
79024;DHT22;70306;44.764;37.688;2024-03-06T04:38:15;8.55;74.43
79024;DHT22;70306;44.764;37.688;2024-03-06T04:39:16;8.58;74.35
79024;DHT22;70306;44.764;37.688;2024-03-06T04:40:18;8.62;74.29
79024;DHT22;70306;44.764;37.688;2024-03-06T04:41:23;8.66;74.53
79024;DHT22;70306;44.764;37.688;2024-03-06T04:42:25;8.68;74.41
79024;DHT22;70306;44.764;37.688;2024-03-06T04:43:27;8.69;74.55
79024;DHT22;70306;44.764;37.688;2024-03-06T04:44:28;8.73;74.42
79024;DHT22;70306;44.764;37.688;2024-03-06T04:45:30;8.76;74.57
79024;DHT22;70306;44.764;37.688;2024-03-06T04:46:32;8.82;74.38
79024;DHT22;70306;44.764;37.688;2024-03-06T04:47:34;8.86;74.16
79024;DHT22;70306;44.764;37.688;2024-03-06T04:48:35;8.96;73.79
79024;DHT22;70306;44.764;37.688;2024-03-06T04:49:37;8.99;73.60
79024;DHT22;70306;44.764;37.688;2024-03-06T04:50:39;9.02;73.54
79024;DHT22;70306;44.764;37.688;2024-03-06T04:51:42;9.06;73.54
79024;DHT22;70306;44.764;37.688;2024-03-06T04:52:44;9.09;73.46
79024;DHT22;70306;44.764;37.688;2024-03-06T04:53:46;9.14;73.65
79024;DHT22;70306;44.764;37.688;2024-03-06T04:54:48;9.19;73.38
79024;DHT22;70306;44.764;37.688;2024-03-06T04:55:49;9.20;73.74
79024;DHT22;70306;44.764;37.688;2024-03-06T04:56:51;9.16;73.69
79024;DHT22;70306;44.764;37.688;2024-03-06T04:57:53;9.23;73.74
79024;DHT22;70306;44.764;37.688;2024-03-06T04:58:55;9.28;73.69
79024;DHT22;70306;44.764;37.688;2024-03-06T04:59:57;9.31;73.40
79024;DHT22;70306;44.764;37.688;2024-03-06T05:00:59;9.38;73.15
79024;DHT22;70306;44.764;37.688;2024-03-06T05:02:02;9.41;72.95
79024;DHT22;70306;44.764;37.688;2024-03-06T05:03:04;9.48;72.88
79024;DHT22;70306;44.764;37.688;2024-03-06T05:04:06;9.52;72.69
79024;DHT22;70306;44.764;37.688;2024-03-06T05:05:08;9.61;72.66
79024;DHT22;70306;44.764;37.688;2024-03-06T05:06:10;9.63;72.60
79024;DHT22;70306;44.764;37.688;2024-03-06T05:07:12;9.66;72.11
79024;DHT22;70306;44.764;37.688;2024-03-06T05:08:14;9.75;72.29
79024;DHT22;70306;44.764;37.688;2024-03-06T05:09:16;9.82;71.90
79024;DHT22;70306;44.764;37.688;2024-03-06T05:10:18;9.86;71.81
79024;DHT22;70306;44.764;37.688;2024-03-06T05:11:20;9.93;71.79
79024;DHT22;70306;44.764;37.688;2024-03-06T05:12:22;10.00;71.44
79024;DHT22;70306;44.764;37.688;2024-03-06T05:13:24;10.10;70.85
79024;DHT22;70306;44.764;37.688;2024-03-06T05:14:27;10.13;70.92
79024;DHT22;70306;44.764;37.688;2024-03-06T05:15:29;10.18;70.79
79024;DHT22;70306;44.764;37.688;2024-03-06T05:16:30;10.27;70.85
79024;DHT22;70306;44.764;37.688;2024-03-06T05:17:32;10.31;70.43
79024;DHT22;70306;44.764;37.688;2024-03-06T05:18:35;10.37;70.16
79024;DHT22;70306;44.764;37.688;2024-03-06T05:19:37;10.40;70.20
79024;DHT22;70306;44.764;37.688;2024-03-06T05:20:39;10.45;70.08
79024;DHT22;70306;44.764;37.688;2024-03-06T05:21:40;10.46;69.46
79024;DHT22;70306;44.764;37.688;2024-03-06T05:22:42;10.55;69.51
79024;DHT22;70306;44.764;37.688;2024-03-06T05:23:44;10.59;69.65
79024;DHT22;70306;44.764;37.688;2024-03-06T05:24:46;10.63;69.70
79024;DHT22;70306;44.764;37.688;2024-03-06T05:25:47;10.66;69.68
79024;DHT22;70306;44.764;37.688;2024-03-06T05:26:50;10.73;69.29
79024;DHT22;70306;44.764;37.688;2024-03-06T05:27:52;10.79;69.12
79024;DHT22;70306;44.764;37.688;2024-03-06T05:28:54;10.86;68.58
79024;DHT22;70306;44.764;37.688;2024-03-06T05:29:55;10.90;68.10
79024;DHT22;70306;44.764;37.688;2024-03-06T05:30:57;10.99;67.47
79024;DHT22;70306;44.764;37.688;2024-03-06T05:31:59;11.03;67.40
79024;DHT22;70306;44.764;37.688;2024-03-06T05:33:01;11.06;67.24
79024;DHT22;70306;44.764;37.688;2024-03-06T05:34:02;11.10;67.29
79024;DHT22;70306;44.764;37.688;2024-03-06T05:35:06;11.21;67.23
79024;DHT22;70306;44.764;37.688;2024-03-06T05:36:11;11.25;67.00
79024;DHT22;70306;44.764;37.688;2024-03-06T05:37:14;11.34;66.95
79024;DHT22;70306;44.764;37.688;2024-03-06T05:38:16;11.35;66.65
79024;DHT22;70306;44.764;37.688;2024-03-06T05:39:18;11.40;66.38
79024;DHT22;70306;44.764;37.688;2024-03-06T05:40:20;11.43;66.20
79024;DHT22;70306;44.764;37.688;2024-03-06T05:41:21;11.48;66.09
79024;DHT22;70306;44.764;37.688;2024-03-06T05:42:23;11.55;65.97
79024;DHT22;70306;44.764;37.688;2024-03-06T05:43:25;11.55;65.81
79024;DHT22;70306;44.764;37.688;2024-03-06T05:44:27;11.61;66.12
79024;DHT22;70306;44.764;37.688;2024-03-06T05:45:28;11.65;65.84
79024;DHT22;70306;44.764;37.688;2024-03-06T05:46:30;11.70;66.08
79024;DHT22;70306;44.764;37.688;2024-03-06T05:47:32;11.72;65.46
79024;DHT22;70306;44.764;37.688;2024-03-06T05:48:34;11.77;65.83
79024;DHT22;70306;44.764;37.688;2024-03-06T05:49:35;11.84;66.00
79024;DHT22;70306;44.764;37.688;2024-03-06T05:50:37;11.86;65.44
79024;DHT22;70306;44.764;37.688;2024-03-06T05:51:40;11.90;65.35
79024;DHT22;70306;44.764;37.688;2024-03-06T05:52:42;11.94;64.47
79024;DHT22;70306;44.764;37.688;2024-03-06T05:53:43;11.98;64.08
79024;DHT22;70306;44.764;37.688;2024-03-06T05:54:45;12.02;64.49
79024;DHT22;70306;44.764;37.688;2024-03-06T05:55:47;12.07;63.75
79024;DHT22;70306;44.764;37.688;2024-03-06T05:56:49;12.13;64.14
79024;DHT22;70306;44.764;37.688;2024-03-06T05:57:52;12.17;64.47
79024;DHT22;70306;44.764;37.688;2024-03-06T05:58:54;12.18;64.84
79024;DHT22;70306;44.764;37.688;2024-03-06T05:59:56;12.24;64.62
79024;DHT22;70306;44.764;37.688;2024-03-06T06:00:58;12.26;64.77
79024;DHT22;70306;44.764;37.688;2024-03-06T06:02:00;12.28;64.49
79024;DHT22;70306;44.764;37.688;2024-03-06T06:03:01;12.26;64.16
79024;DHT22;70306;44.764;37.688;2024-03-06T06:04:04;12.32;63.59
79024;DHT22;70306;44.764;37.688;2024-03-06T06:05:06;12.36;62.27
79024;DHT22;70306;44.764;37.688;2024-03-06T06:06:08;12.34;62.69
79024;DHT22;70306;44.764;37.688;2024-03-06T06:07:10;12.35;64.00
79024;DHT22;70306;44.764;37.688;2024-03-06T06:08:12;12.36;63.65
79024;DHT22;70306;44.764;37.688;2024-03-06T06:09:14;12.39;62.58
79024;DHT22;70306;44.764;37.688;2024-03-06T06:10:17;12.42;63.05
79024;DHT22;70306;44.764;37.688;2024-03-06T06:11:20;12.42;62.84
79024;DHT22;70306;44.764;37.688;2024-03-06T06:12:22;12.48;62.63
79024;DHT22;70306;44.764;37.688;2024-03-06T06:13:23;12.50;61.92
79024;DHT22;70306;44.764;37.688;2024-03-06T06:14:25;12.57;62.28
79024;DHT22;70306;44.764;37.688;2024-03-06T06:15:30;12.56;62.15
79024;DHT22;70306;44.764;37.688;2024-03-06T06:16:39;12.59;61.86
79024;DHT22;70306;44.764;37.688;2024-03-06T06:17:42;12.64;62.34
79024;DHT22;70306;44.764;37.688;2024-03-06T06:18:47;12.67;62.44
79024;DHT22;70306;44.764;37.688;2024-03-06T06:19:49;12.72;62.51
79024;DHT22;70306;44.764;37.688;2024-03-06T06:20:51;12.77;62.25
79024;DHT22;70306;44.764;37.688;2024-03-06T06:21:54;12.86;61.90
79024;DHT22;70306;44.764;37.688;2024-03-06T06:22:56;12.90;61.47
79024;DHT22;70306;44.764;37.688;2024-03-06T06:23:58;12.96;61.16
79024;DHT22;70306;44.764;37.688;2024-03-06T06:24:59;13.01;60.84
79024;DHT22;70306;44.764;37.688;2024-03-06T06:26:01;13.07;59.97
79024;DHT22;70306;44.764;37.688;2024-03-06T06:27:03;13.12;60.92
79024;DHT22;70306;44.764;37.688;2024-03-06T06:28:06;13.15;60.01
79024;DHT22;70306;44.764;37.688;2024-03-06T06:29:07;13.18;60.89
79024;DHT22;70306;44.764;37.688;2024-03-06T06:30:10;13.19;59.54
79024;DHT22;70306;44.764;37.688;2024-03-06T06:31:15;13.28;59.30
79024;DHT22;70306;44.764;37.688;2024-03-06T06:32:17;13.35;59.31
79024;DHT22;70306;44.764;37.688;2024-03-06T06:33:20;13.48;60.06
79024;DHT22;70306;44.764;37.688;2024-03-06T06:34:22;13.50;60.60
79024;DHT22;70306;44.764;37.688;2024-03-06T06:35:24;13.57;60.07